sensor_id;sensor_type;location;lat;lon;timestamp;P1;durP1;ratioP1;P2;durP2;ratioP2
15816;SDS011;8009;50.070;8.232;2022-12-29T00:01:01;18.73;;;18.03;;
15816;SDS011;8009;50.070;8.232;2022-12-29T00:03:30;18.33;;;17.63;;
15816;SDS011;8009;50.070;8.232;2022-12-29T00:05:58;15.03;;;14.47;;
15816;SDS011;8009;50.070;8.232;2022-12-29T00:08:27;18.63;;;17.93;;
15816;SDS011;8009;50.070;8.232;2022-12-29T00:11:07;16.60;;;16.00;;
15816;SDS011;8009;50.070;8.232;2022-12-29T00:13:36;18.03;;;17.33;;
15816;SDS011;8009;50.070;8.232;2022-12-29T00:16:20;16.93;;;16.33;;
15816;SDS011;8009;50.070;8.232;2022-12-29T00:18:48;16.53;;;15.93;;
15816;SDS011;8009;50.070;8.232;2022-12-29T00:21:18;15.97;;;15.37;;
15816;SDS011;8009;50.070;8.232;2022-12-29T00:24:00;16.87;;;16.27;;
15816;SDS011;8009;50.070;8.232;2022-12-29T00:26:47;15.03;;;14.47;;
15816;SDS011;8009;50.070;8.232;2022-12-29T00:29:28;15.93;;;15.33;;
15816;SDS011;8009;50.070;8.232;2022-12-29T00:32:11;17.60;;;16.90;;
15816;SDS011;8009;50.070;8.232;2022-12-29T00:34:52;16.57;;;15.97;;
15816;SDS011;8009;50.070;8.232;2022-12-29T00:37:33;17.03;;;16.43;;
15816;SDS011;8009;50.070;8.232;2022-12-29T00:40:14;16.70;;;16.10;;
15816;SDS011;8009;50.070;8.232;2022-12-29T00:42:55;18.80;;;18.10;;
15816;SDS011;8009;50.070;8.232;2022-12-29T00:45:35;18.40;;;17.70;;
15816;SDS011;8009;50.070;8.232;2022-12-29T00:48:06;16.73;;;16.13;;
15816;SDS011;8009;50.070;8.232;2022-12-29T00:50:35;20.43;;;19.63;;
15816;SDS011;8009;50.070;8.232;2022-12-29T00:53:00;15.87;;;15.27;;
15816;SDS011;8009;50.070;8.232;2022-12-29T00:55:29;17.40;;;16.75;;
15816;SDS011;8009;50.070;8.232;2022-12-29T00:57:57;18.47;;;17.77;;
15816;SDS011;8009;50.070;8.232;2022-12-29T01:00:26;19.97;;;19.20;;
15816;SDS011;8009;50.070;8.232;2022-12-29T01:02:54;15.63;;;15.03;;
15816;SDS011;8009;50.070;8.232;2022-12-29T01:05:25;16.27;;;15.67;;
15816;SDS011;8009;50.070;8.232;2022-12-29T01:07:53;18.43;;;17.73;;
15816;SDS011;8009;50.070;8.232;2022-12-29T01:10:22;15.40;;;14.80;;
15816;SDS011;8009;50.070;8.232;2022-12-29T01:12:47;18.30;;;17.60;;
15816;SDS011;8009;50.070;8.232;2022-12-29T01:15:16;16.67;;;16.08;;
15816;SDS011;8009;50.070;8.232;2022-12-29T01:17:44;18.97;;;18.27;;
15816;SDS011;8009;50.070;8.232;2022-12-29T01:20:13;17.13;;;16.53;;
15816;SDS011;8009;50.070;8.232;2022-12-29T01:22:44;19.00;;;18.30;;
15816;SDS011;8009;50.070;8.232;2022-12-29T01:25:12;17.47;;;16.83;;
15816;SDS011;8009;50.070;8.232;2022-12-29T01:27:40;19.20;;;18.50;;
15816;SDS011;8009;50.070;8.232;2022-12-29T01:30:09;17.93;;;17.23;;
15816;SDS011;8009;50.070;8.232;2022-12-29T01:32:38;19.60;;;18.90;;
15816;SDS011;8009;50.070;8.232;2022-12-29T01:35:06;16.50;;;15.90;;
15816;SDS011;8009;50.070;8.232;2022-12-29T01:37:35;17.13;;;16.53;;
15816;SDS011;8009;50.070;8.232;2022-12-29T01:40:07;16.17;;;15.57;;
15816;SDS011;8009;50.070;8.232;2022-12-29T01:42:36;16.90;;;16.30;;
15816;SDS011;8009;50.070;8.232;2022-12-29T01:45:07;16.23;;;15.63;;
15816;SDS011;8009;50.070;8.232;2022-12-29T01:47:38;14.63;;;14.13;;
15816;SDS011;8009;50.070;8.232;2022-12-29T01:50:10;16.93;;;16.33;;
15816;SDS011;8009;50.070;8.232;2022-12-29T01:52:41;16.70;;;16.10;;
15816;SDS011;8009;50.070;8.232;2022-12-29T01:55:19;13.37;;;12.87;;
15816;SDS011;8009;50.070;8.232;2022-12-29T01:57:48;14.77;;;14.23;;
15816;SDS011;8009;50.070;8.232;2022-12-29T02:00:20;14.27;;;13.77;;
15816;SDS011;8009;50.070;8.232;2022-12-29T02:02:49;14.87;;;14.33;;
15816;SDS011;8009;50.070;8.232;2022-12-29T02:05:23;13.67;;;13.17;;
15816;SDS011;8009;50.070;8.232;2022-12-29T02:07:58;14.67;;;14.17;;
15816;SDS011;8009;50.070;8.232;2022-12-29T02:10:32;15.83;;;15.23;;
15816;SDS011;8009;50.070;8.232;2022-12-29T02:13:02;14.93;;;14.40;;
15816;SDS011;8009;50.070;8.232;2022-12-29T02:15:50;15.10;;;14.50;;
15816;SDS011;8009;50.070;8.232;2022-12-29T02:18:29;16.10;;;15.50;;
15816;SDS011;8009;50.070;8.232;2022-12-29T02:27:15;15.20;;;14.60;;
15816;SDS011;8009;50.070;8.232;2022-12-29T02:30:04;16.10;;;15.50;;
15816;SDS011;8009;50.070;8.232;2022-12-29T02:32:41;19.83;;;19.10;;
15816;SDS011;8009;50.070;8.232;2022-12-29T02:35:23;14.77;;;14.27;;
15816;SDS011;8009;50.070;8.232;2022-12-29T02:38:00;15.17;;;14.60;;
15816;SDS011;8009;50.070;8.232;2022-12-29T02:40:39;13.30;;;12.80;;
15816;SDS011;8009;50.070;8.232;2022-12-29T02:43:19;14.73;;;14.20;;
15816;SDS011;8009;50.070;8.232;2022-12-29T02:46:32;14.33;;;13.83;;
15816;SDS011;8009;50.070;8.232;2022-12-29T02:55:49;15.13;;;14.57;;
15816;SDS011;8009;50.070;8.232;2022-12-29T02:58:20;14.20;;;13.70;;
15816;SDS011;8009;50.070;8.232;2022-12-29T03:01:03;15.20;;;14.60;;
15816;SDS011;8009;50.070;8.232;2022-12-29T03:03:45;16.23;;;15.63;;
15816;SDS011;8009;50.070;8.232;2022-12-29T03:06:27;14.30;;;13.80;;
15816;SDS011;8009;50.070;8.232;2022-12-29T03:09:06;14.00;;;13.50;;
15816;SDS011;8009;50.070;8.232;2022-12-29T03:11:48;14.07;;;13.57;;
15816;SDS011;8009;50.070;8.232;2022-12-29T03:14:39;14.80;;;14.27;;
15816;SDS011;8009;50.070;8.232;2022-12-29T03:17:30;15.60;;;15.00;;
15816;SDS011;8009;50.070;8.232;2022-12-29T03:20:14;15.87;;;15.27;;
15816;SDS011;8009;50.070;8.232;2022-12-29T03:22:47;14.60;;;14.10;;
15816;SDS011;8009;50.070;8.232;2022-12-29T03:25:20;14.00;;;13.50;;
15816;SDS011;8009;50.070;8.232;2022-12-29T03:27:55;15.80;;;15.20;;
15816;SDS011;8009;50.070;8.232;2022-12-29T03:30:28;14.03;;;13.53;;
15816;SDS011;8009;50.070;8.232;2022-12-29T03:32:59;15.03;;;14.47;;
15816;SDS011;8009;50.070;8.232;2022-12-29T03:35:32;17.00;;;16.40;;
15816;SDS011;8009;50.070;8.232;2022-12-29T03:38:05;13.57;;;13.07;;
15816;SDS011;8009;50.070;8.232;2022-12-29T03:40:39;13.60;;;13.10;;
15816;SDS011;8009;50.070;8.232;2022-12-29T03:43:12;15.80;;;15.20;;
15816;SDS011;8009;50.070;8.232;2022-12-29T03:45:44;12.33;;;11.90;;
15816;SDS011;8009;50.070;8.232;2022-12-29T03:48:12;22.92;;;22.05;;
15816;SDS011;8009;50.070;8.232;2022-12-29T03:50:40;15.87;;;15.27;;
15816;SDS011;8009;50.070;8.232;2022-12-29T03:53:09;13.83;;;13.33;;
15816;SDS011;8009;50.070;8.232;2022-12-29T03:55:37;16.77;;;16.17;;
15816;SDS011;8009;50.070;8.232;2022-12-29T03:58:05;13.73;;;13.23;;
15816;SDS011;8009;50.070;8.232;2022-12-29T04:00:36;13.00;;;12.50;;
15816;SDS011;8009;50.070;8.232;2022-12-29T04:03:05;13.93;;;13.43;;
15816;SDS011;8009;50.070;8.232;2022-12-29T04:05:33;14.93;;;14.37;;
15816;SDS011;8009;50.070;8.232;2022-12-29T04:08:02;13.90;;;13.40;;
15816;SDS011;8009;50.070;8.232;2022-12-29T04:10:30;14.00;;;13.50;;
15816;SDS011;8009;50.070;8.232;2022-12-29T04:12:58;13.87;;;13.37;;
15816;SDS011;8009;50.070;8.232;2022-12-29T04:15:27;17.53;;;16.87;;
15816;SDS011;8009;50.070;8.232;2022-12-29T04:17:57;14.03;;;13.53;;
15816;SDS011;8009;50.070;8.232;2022-12-29T04:20:26;16.17;;;15.57;;
15816;SDS011;8009;50.070;8.232;2022-12-29T04:23:07;11.37;;;10.97;;
15816;SDS011;8009;50.070;8.232;2022-12-29T04:25:35;14.33;;;13.83;;
15816;SDS011;8009;50.070;8.232;2022-12-29T04:28:03;13.07;;;12.57;;
15816;SDS011;8009;50.070;8.232;2022-12-29T04:30:33;12.93;;;12.43;;
15816;SDS011;8009;50.070;8.232;2022-12-29T04:33:03;13.83;;;13.33;;
15816;SDS011;8009;50.070;8.232;2022-12-29T04:35:32;16.53;;;15.93;;
15816;SDS011;8009;50.070;8.232;2022-12-29T04:38:00;11.53;;;11.13;;
15816;SDS011;8009;50.070;8.232;2022-12-29T04:40:29;14.17;;;13.67;;
15816;SDS011;8009;50.070;8.232;2022-12-29T04:42:57;16.03;;;15.43;;
15816;SDS011;8009;50.070;8.232;2022-12-29T04:45:27;14.13;;;13.63;;
15816;SDS011;8009;50.070;8.232;2022-12-29T04:47:56;11.20;;;10.80;;
15816;SDS011;8009;50.070;8.232;2022-12-29T04:50:27;15.10;;;14.53;;
15816;SDS011;8009;50.070;8.232;2022-12-29T04:52:55;15.43;;;14.87;;
15816;SDS011;8009;50.070;8.232;2022-12-29T04:55:24;14.90;;;14.33;;
15816;SDS011;8009;50.070;8.232;2022-12-29T04:57:52;12.43;;;11.97;;
15816;SDS011;8009;50.070;8.232;2022-12-29T05:00:20;13.93;;;13.43;;
15816;SDS011;8009;50.070;8.232;2022-12-29T05:02:51;14.80;;;14.27;;
15816;SDS011;8009;50.070;8.232;2022-12-29T05:05:20;14.60;;;14.07;;
15816;SDS011;8009;50.070;8.232;2022-12-29T05:07:51;14.70;;;14.17;;
15816;SDS011;8009;50.070;8.232;2022-12-29T05:10:19;12.90;;;12.40;;
15816;SDS011;8009;50.070;8.232;2022-12-29T05:12:48;13.57;;;13.07;;
15816;SDS011;8009;50.070;8.232;2022-12-29T05:15:16;14.30;;;13.80;;
15816;SDS011;8009;50.070;8.232;2022-12-29T05:17:44;13.30;;;12.80;;
15816;SDS011;8009;50.070;8.232;2022-12-29T05:20:13;14.03;;;13.53;;
15816;SDS011;8009;50.070;8.232;2022-12-29T05:22:41;13.77;;;13.27;;
15816;SDS011;8009;50.070;8.232;2022-12-29T05:25:12;16.40;;;15.80;;
15816;SDS011;8009;50.070;8.232;2022-12-29T05:27:40;15.67;;;15.07;;
15816;SDS011;8009;50.070;8.232;2022-12-29T05:30:09;13.03;;;12.53;;
15816;SDS011;8009;50.070;8.232;2022-12-29T05:32:38;16.00;;;15.40;;
15816;SDS011;8009;50.070;8.232;2022-12-29T05:35:07;11.63;;;11.23;;
15816;SDS011;8009;50.070;8.232;2022-12-29T05:37:36;13.83;;;13.33;;
15816;SDS011;8009;50.070;8.232;2022-12-29T05:40:05;14.40;;;13.90;;
15816;SDS011;8009;50.070;8.232;2022-12-29T05:42:37;14.83;;;14.30;;
15816;SDS011;8009;50.070;8.232;2022-12-29T05:45:06;15.70;;;15.10;;
15816;SDS011;8009;50.070;8.232;2022-12-29T05:47:36;13.90;;;13.40;;
15816;SDS011;8009;50.070;8.232;2022-12-29T05:50:04;13.43;;;12.93;;
15816;SDS011;8009;50.070;8.232;2022-12-29T05:52:33;16.27;;;15.67;;
15816;SDS011;8009;50.070;8.232;2022-12-29T05:55:01;15.37;;;14.77;;
15816;SDS011;8009;50.070;8.232;2022-12-29T05:57:30;13.47;;;12.97;;
15816;SDS011;8009;50.070;8.232;2022-12-29T06:00:00;14.33;;;13.83;;
15816;SDS011;8009;50.070;8.232;2022-12-29T06:02:29;14.67;;;14.17;;
15816;SDS011;8009;50.070;8.232;2022-12-29T06:04:58;13.63;;;13.13;;
15816;SDS011;8009;50.070;8.232;2022-12-29T06:07:26;14.47;;;13.97;;
15816;SDS011;8009;50.070;8.232;2022-12-29T06:09:54;14.17;;;13.67;;
15816;SDS011;8009;50.070;8.232;2022-12-29T06:12:22;16.77;;;16.17;;
15816;SDS011;8009;50.070;8.232;2022-12-29T06:14:51;15.67;;;15.07;;
15816;SDS011;8009;50.070;8.232;2022-12-29T06:17:22;13.00;;;12.50;;
15816;SDS011;8009;50.070;8.232;2022-12-29T06:19:50;13.83;;;13.33;;
15816;SDS011;8009;50.070;8.232;2022-12-29T06:22:18;12.70;;;12.20;;
15816;SDS011;8009;50.070;8.232;2022-12-29T06:24:47;15.03;;;14.47;;
15816;SDS011;8009;50.070;8.232;2022-12-29T06:27:15;16.17;;;15.57;;
15816;SDS011;8009;50.070;8.232;2022-12-29T06:29:43;13.67;;;13.17;;
15816;SDS011;8009;50.070;8.232;2022-12-29T06:32:11;15.87;;;15.27;;
15816;SDS011;8009;50.070;8.232;2022-12-29T06:34:42;17.40;;;16.73;;
15816;SDS011;8009;50.070;8.232;2022-12-29T06:37:11;16.97;;;16.37;;
15816;SDS011;8009;50.070;8.232;2022-12-29T06:39:39;14.73;;;14.23;;
15816;SDS011;8009;50.070;8.232;2022-12-29T06:42:08;16.33;;;15.73;;
15816;SDS011;8009;50.070;8.232;2022-12-29T06:44:37;17.77;;;17.07;;
15816;SDS011;8009;50.070;8.232;2022-12-29T06:47:05;14.30;;;13.80;;
15816;SDS011;8009;50.070;8.232;2022-12-29T06:49:33;13.13;;;12.63;;
15816;SDS011;8009;50.070;8.232;2022-12-29T06:52:04;13.57;;;13.07;;
15816;SDS011;8009;50.070;8.232;2022-12-29T06:54:35;15.80;;;15.20;;
15816;SDS011;8009;50.070;8.232;2022-12-29T06:57:05;13.77;;;13.27;;
15816;SDS011;8009;50.070;8.232;2022-12-29T06:59:33;15.83;;;15.23;;
15816;SDS011;8009;50.070;8.232;2022-12-29T07:02:02;16.80;;;16.20;;
15816;SDS011;8009;50.070;8.232;2022-12-29T07:04:30;20.10;;;19.30;;
15816;SDS011;8009;50.070;8.232;2022-12-29T07:06:58;18.33;;;17.63;;
15816;SDS011;8009;50.070;8.232;2022-12-29T07:09:29;16.00;;;15.40;;
15816;SDS011;8009;50.070;8.232;2022-12-29T07:11:57;18.13;;;17.43;;
15816;SDS011;8009;50.070;8.232;2022-12-29T07:14:26;16.30;;;15.70;;
15816;SDS011;8009;50.070;8.232;2022-12-29T07:16:54;13.93;;;13.43;;
15816;SDS011;8009;50.070;8.232;2022-12-29T07:19:23;16.43;;;15.83;;
15816;SDS011;8009;50.070;8.232;2022-12-29T07:21:51;14.63;;;14.13;;
15816;SDS011;8009;50.070;8.232;2022-12-29T07:24:21;18.30;;;17.60;;
15816;SDS011;8009;50.070;8.232;2022-12-29T07:26:53;14.90;;;14.37;;
15816;SDS011;8009;50.070;8.232;2022-12-29T07:29:21;15.93;;;15.33;;
15816;SDS011;8009;50.070;8.232;2022-12-29T07:31:50;16.47;;;15.87;;
15816;SDS011;8009;50.070;8.232;2022-12-29T07:34:18;17.40;;;16.75;;
15816;SDS011;8009;50.070;8.232;2022-12-29T07:36:47;14.03;;;13.53;;
15816;SDS011;8009;50.070;8.232;2022-12-29T07:39:15;14.70;;;14.20;;
15816;SDS011;8009;50.070;8.232;2022-12-29T07:41:43;14.70;;;14.17;;
15816;SDS011;8009;50.070;8.232;2022-12-29T07:44:14;13.60;;;13.10;;
15816;SDS011;8009;50.070;8.232;2022-12-29T07:46:42;14.50;;;14.00;;
15816;SDS011;8009;50.070;8.232;2022-12-29T07:49:11;17.17;;;16.57;;
15816;SDS011;8009;50.070;8.232;2022-12-29T07:51:39;15.73;;;15.13;;
15816;SDS011;8009;50.070;8.232;2022-12-29T07:54:08;16.13;;;15.53;;
15816;SDS011;8009;50.070;8.232;2022-12-29T07:56:37;13.23;;;12.73;;
15816;SDS011;8009;50.070;8.232;2022-12-29T07:59:06;15.47;;;14.87;;
15816;SDS011;8009;50.070;8.232;2022-12-29T08:07:47;14.40;;;13.90;;
15816;SDS011;8009;50.070;8.232;2022-12-29T08:13:26;12.23;;;11.83;;
15816;SDS011;8009;50.070;8.232;2022-12-29T08:15:54;14.70;;;14.20;;
15816;SDS011;8009;50.070;8.232;2022-12-29T08:18:23;15.27;;;14.67;;
15816;SDS011;8009;50.070;8.232;2022-12-29T08:20:54;13.17;;;12.67;;
15816;SDS011;8009;50.070;8.232;2022-12-29T08:23:22;17.83;;;17.13;;
15816;SDS011;8009;50.070;8.232;2022-12-29T08:25:56;14.00;;;13.50;;
15816;SDS011;8009;50.070;8.232;2022-12-29T08:28:25;12.50;;;12.03;;
15816;SDS011;8009;50.070;8.232;2022-12-29T08:30:54;13.03;;;12.53;;
15816;SDS011;8009;50.070;8.232;2022-12-29T08:33:25;15.43;;;14.83;;
15816;SDS011;8009;50.070;8.232;2022-12-29T08:36:00;17.23;;;16.63;;
15816;SDS011;8009;50.070;8.232;2022-12-29T08:38:30;15.63;;;15.03;;
15816;SDS011;8009;50.070;8.232;2022-12-29T08:40:59;13.67;;;13.17;;
15816;SDS011;8009;50.070;8.232;2022-12-29T08:43:28;18.33;;;17.63;;
15816;SDS011;8009;50.070;8.232;2022-12-29T08:46:00;13.23;;;12.73;;
15816;SDS011;8009;50.070;8.232;2022-12-29T08:48:29;16.20;;;15.60;;
15816;SDS011;8009;50.070;8.232;2022-12-29T08:51:00;16.77;;;16.17;;
15816;SDS011;8009;50.070;8.232;2022-12-29T08:53:29;16.73;;;16.13;;
15816;SDS011;8009;50.070;8.232;2022-12-29T08:55:58;14.60;;;14.10;;
15816;SDS011;8009;50.070;8.232;2022-12-29T08:58:27;15.57;;;14.97;;
15816;SDS011;8009;50.070;8.232;2022-12-29T09:00:56;13.03;;;12.53;;
15816;SDS011;8009;50.070;8.232;2022-12-29T09:03:25;15.43;;;14.83;;
15816;SDS011;8009;50.070;8.232;2022-12-29T09:05:56;13.93;;;13.43;;
15816;SDS011;8009;50.070;8.232;2022-12-29T09:08:27;14.53;;;14.03;;
15816;SDS011;8009;50.070;8.232;2022-12-29T09:11:05;13.93;;;13.43;;
15816;SDS011;8009;50.070;8.232;2022-12-29T09:13:34;13.67;;;13.17;;
15816;SDS011;8009;50.070;8.232;2022-12-29T09:16:04;13.20;;;12.70;;
15816;SDS011;8009;50.070;8.232;2022-12-29T09:18:33;14.10;;;13.60;;
15816;SDS011;8009;50.070;8.232;2022-12-29T09:21:04;12.80;;;12.30;;
15816;SDS011;8009;50.070;8.232;2022-12-29T09:23:36;14.90;;;14.37;;
15816;SDS011;8009;50.070;8.232;2022-12-29T09:26:05;15.10;;;14.50;;
15816;SDS011;8009;50.070;8.232;2022-12-29T09:28:34;16.87;;;16.27;;
15816;SDS011;8009;50.070;8.232;2022-12-29T09:31:03;14.00;;;13.50;;
15816;SDS011;8009;50.070;8.232;2022-12-29T09:33:32;14.03;;;13.53;;
15816;SDS011;8009;50.070;8.232;2022-12-29T09:36:01;13.83;;;13.33;;
15816;SDS011;8009;50.070;8.232;2022-12-29T09:38:30;14.53;;;14.03;;
15816;SDS011;8009;50.070;8.232;2022-12-29T09:41:04;13.47;;;12.97;;
15816;SDS011;8009;50.070;8.232;2022-12-29T09:43:43;11.33;;;10.93;;
15816;SDS011;8009;50.070;8.232;2022-12-29T09:46:23;14.07;;;13.57;;
15816;SDS011;8009;50.070;8.232;2022-12-29T09:48:56;13.00;;;12.50;;
15816;SDS011;8009;50.070;8.232;2022-12-29T09:51:33;14.83;;;14.30;;
15816;SDS011;8009;50.070;8.232;2022-12-29T09:54:13;14.07;;;13.57;;
15816;SDS011;8009;50.070;8.232;2022-12-29T09:56:54;15.77;;;15.17;;
15816;SDS011;8009;50.070;8.232;2022-12-29T09:59:24;14.03;;;13.53;;
15816;SDS011;8009;50.070;8.232;2022-12-29T10:02:12;16.57;;;15.97;;
15816;SDS011;8009;50.070;8.232;2022-12-29T10:04:51;15.00;;;14.40;;
15816;SDS011;8009;50.070;8.232;2022-12-29T10:07:23;21.98;;;21.17;;
15816;SDS011;8009;50.070;8.232;2022-12-29T10:10:01;16.17;;;15.57;;
15816;SDS011;8009;50.070;8.232;2022-12-29T10:12:44;14.07;;;13.57;;
15816;SDS011;8009;50.070;8.232;2022-12-29T10:15:29;13.10;;;12.60;;
15816;SDS011;8009;50.070;8.232;2022-12-29T10:18:22;16.33;;;15.73;;
15816;SDS011;8009;50.070;8.232;2022-12-29T10:21:04;13.47;;;12.97;;
15816;SDS011;8009;50.070;8.232;2022-12-29T10:23:47;16.50;;;15.90;;
15816;SDS011;8009;50.070;8.232;2022-12-29T10:26:20;15.63;;;15.03;;
15816;SDS011;8009;50.070;8.232;2022-12-29T10:28:54;16.57;;;15.97;;
15816;SDS011;8009;50.070;8.232;2022-12-29T10:31:29;15.50;;;14.90;;
15816;SDS011;8009;50.070;8.232;2022-12-29T10:34:06;14.07;;;13.57;;
15816;SDS011;8009;50.070;8.232;2022-12-29T10:36:48;12.07;;;11.67;;
15816;SDS011;8009;50.070;8.232;2022-12-29T10:39:19;16.23;;;15.63;;
15816;SDS011;8009;50.070;8.232;2022-12-29T10:41:57;16.00;;;15.40;;
15816;SDS011;8009;50.070;8.232;2022-12-29T10:48:01;16.37;;;15.77;;
15816;SDS011;8009;50.070;8.232;2022-12-29T10:50:44;14.60;;;14.07;;
15816;SDS011;8009;50.070;8.232;2022-12-29T10:53:15;14.20;;;13.70;;
15816;SDS011;8009;50.070;8.232;2022-12-29T10:55:48;16.17;;;15.57;;
15816;SDS011;8009;50.070;8.232;2022-12-29T10:58:17;16.87;;;16.27;;
15816;SDS011;8009;50.070;8.232;2022-12-29T11:00:48;15.30;;;14.70;;
15816;SDS011;8009;50.070;8.232;2022-12-29T11:06:27;15.30;;;14.70;;
15816;SDS011;8009;50.070;8.232;2022-12-29T11:08:58;15.90;;;15.30;;
15816;SDS011;8009;50.070;8.232;2022-12-29T11:11:32;13.30;;;12.80;;
15816;SDS011;8009;50.070;8.232;2022-12-29T11:14:02;16.77;;;16.17;;
15816;SDS011;8009;50.070;8.232;2022-12-29T11:16:40;17.30;;;16.70;;
15816;SDS011;8009;50.070;8.232;2022-12-29T11:19:19;14.83;;;14.30;;
15816;SDS011;8009;50.070;8.232;2022-12-29T11:21:54;15.17;;;14.57;;
15816;SDS011;8009;50.070;8.232;2022-12-29T11:24:23;22.30;;;21.48;;
15816;SDS011;8009;50.070;8.232;2022-12-29T11:26:54;17.87;;;17.20;;
15816;SDS011;8009;50.070;8.232;2022-12-29T11:29:27;18.20;;;17.50;;
15816;SDS011;8009;50.070;8.232;2022-12-29T11:31:57;19.47;;;18.77;;
15816;SDS011;8009;50.070;8.232;2022-12-29T11:34:30;20.03;;;19.27;;
15816;SDS011;8009;50.070;8.232;2022-12-29T11:37:03;16.20;;;15.60;;
15816;SDS011;8009;50.070;8.232;2022-12-29T11:39:36;18.67;;;17.97;;
15816;SDS011;8009;50.070;8.232;2022-12-29T11:42:12;14.57;;;14.07;;
15816;SDS011;8009;50.070;8.232;2022-12-29T11:44:43;17.20;;;16.60;;
15816;SDS011;8009;50.070;8.232;2022-12-29T11:47:19;18.93;;;18.23;;
15816;SDS011;8009;50.070;8.232;2022-12-29T11:49:52;18.00;;;17.30;;
15816;SDS011;8009;50.070;8.232;2022-12-29T11:52:26;19.13;;;18.43;;
15816;SDS011;8009;50.070;8.232;2022-12-29T11:54:58;18.40;;;17.70;;
15816;SDS011;8009;50.070;8.232;2022-12-29T11:57:29;17.37;;;16.73;;
15816;SDS011;8009;50.070;8.232;2022-12-29T12:00:03;18.50;;;17.80;;
15816;SDS011;8009;50.070;8.232;2022-12-29T12:02:44;16.67;;;16.07;;
15816;SDS011;8009;50.070;8.232;2022-12-29T12:05:20;18.60;;;17.90;;
15816;SDS011;8009;50.070;8.232;2022-12-29T12:08:01;18.83;;;18.13;;
15816;SDS011;8009;50.070;8.232;2022-12-29T12:10:38;20.37;;;19.60;;
15816;SDS011;8009;50.070;8.232;2022-12-29T12:13:16;21.30;;;20.50;;
15816;SDS011;8009;50.070;8.232;2022-12-29T12:15:49;21.60;;;20.80;;
15816;SDS011;8009;50.070;8.232;2022-12-29T12:18:25;23.93;;;23.03;;
15816;SDS011;8009;50.070;8.232;2022-12-29T12:21:06;23.27;;;22.37;;
15816;SDS011;8009;50.070;8.232;2022-12-29T12:23:47;23.83;;;22.93;;
15816;SDS011;8009;50.070;8.232;2022-12-29T12:26:34;26.80;;;25.80;;
15816;SDS011;8009;50.070;8.232;2022-12-29T12:29:09;25.83;;;24.83;;
15816;SDS011;8009;50.070;8.232;2022-12-29T12:31:44;24.10;;;23.20;;
15816;SDS011;8009;50.070;8.232;2022-12-29T12:34:18;18.80;;;18.10;;
15816;SDS011;8009;50.070;8.232;2022-12-29T12:39:47;29.27;;;28.17;;
15816;SDS011;8009;50.070;8.232;2022-12-29T12:42:32;19.27;;;18.53;;
15816;SDS011;8009;50.070;8.232;2022-12-29T12:45:24;18.17;;;17.47;;
15816;SDS011;8009;50.070;8.232;2022-12-29T12:48:02;21.97;;;21.17;;
15816;SDS011;8009;50.070;8.232;2022-12-29T12:50:45;20.30;;;19.50;;
15816;SDS011;8009;50.070;8.232;2022-12-29T12:53:29;18.63;;;17.93;;
15816;SDS011;8009;50.070;8.232;2022-12-29T12:56:16;20.23;;;19.43;;
15816;SDS011;8009;50.070;8.232;2022-12-29T12:58:59;21.13;;;20.33;;
15816;SDS011;8009;50.070;8.232;2022-12-29T13:01:38;23.00;;;22.10;;
15816;SDS011;8009;50.070;8.232;2022-12-29T13:04:32;23.63;;;22.73;;
15816;SDS011;8009;50.070;8.232;2022-12-29T13:07:27;24.73;;;23.83;;
15816;SDS011;8009;50.070;8.232;2022-12-29T13:13:05;20.43;;;19.63;;
15816;SDS011;8009;50.070;8.232;2022-12-29T13:15:53;23.03;;;22.13;;
15816;SDS011;8009;50.070;8.232;2022-12-29T13:18:31;23.13;;;22.23;;
15816;SDS011;8009;50.070;8.232;2022-12-29T13:21:06;20.57;;;19.77;;
15816;SDS011;8009;50.070;8.232;2022-12-29T13:23:45;18.73;;;18.03;;
15816;SDS011;8009;50.070;8.232;2022-12-29T13:26:24;19.40;;;18.70;;
15816;SDS011;8009;50.070;8.232;2022-12-29T13:29:03;23.27;;;22.37;;
15816;SDS011;8009;50.070;8.232;2022-12-29T13:31:42;17.00;;;16.40;;
15816;SDS011;8009;50.070;8.232;2022-12-29T13:34:20;24.13;;;23.23;;
15816;SDS011;8009;50.070;8.232;2022-12-29T13:37:01;25.95;;;24.95;;
15816;SDS011;8009;50.070;8.232;2022-12-29T13:39:33;22.00;;;21.20;;
15816;SDS011;8009;50.070;8.232;2022-12-29T13:42:05;20.50;;;19.70;;
15816;SDS011;8009;50.070;8.232;2022-12-29T13:44:38;20.03;;;19.30;;
15816;SDS011;8009;50.070;8.232;2022-12-29T13:47:18;21.57;;;20.77;;
15816;SDS011;8009;50.070;8.232;2022-12-29T13:49:51;23.13;;;22.23;;
15816;SDS011;8009;50.070;8.232;2022-12-29T13:52:24;23.07;;;22.17;;
15816;SDS011;8009;50.070;8.232;2022-12-29T13:55:07;24.50;;;23.60;;
15816;SDS011;8009;50.070;8.232;2022-12-29T13:57:57;20.57;;;19.77;;
15816;SDS011;8009;50.070;8.232;2022-12-29T14:00:35;20.40;;;19.60;;
15816;SDS011;8009;50.070;8.232;2022-12-29T14:03:17;19.07;;;18.37;;
15816;SDS011;8009;50.070;8.232;2022-12-29T14:06:04;19.20;;;18.50;;
15816;SDS011;8009;50.070;8.232;2022-12-29T14:08:41;20.77;;;19.97;;
15816;SDS011;8009;50.070;8.232;2022-12-29T14:11:11;20.13;;;19.37;;
15816;SDS011;8009;50.070;8.232;2022-12-29T14:13:42;20.37;;;19.57;;
15816;SDS011;8009;50.070;8.232;2022-12-29T14:16:24;19.50;;;18.80;;
15816;SDS011;8009;50.070;8.232;2022-12-29T14:18:55;22.93;;;22.03;;
15816;SDS011;8009;50.070;8.232;2022-12-29T14:21:32;19.83;;;19.13;;
15816;SDS011;8009;50.070;8.232;2022-12-29T14:30:06;22.20;;;21.40;;
15816;SDS011;8009;50.070;8.232;2022-12-29T14:33:13;23.50;;;22.60;;
15816;SDS011;8009;50.070;8.232;2022-12-29T14:35:43;23.10;;;22.20;;
15816;SDS011;8009;50.070;8.232;2022-12-29T14:38:21;25.53;;;24.53;;
15816;SDS011;8009;50.070;8.232;2022-12-29T14:43:51;24.73;;;23.83;;
15816;SDS011;8009;50.070;8.232;2022-12-29T14:46:24;19.77;;;19.03;;
15816;SDS011;8009;50.070;8.232;2022-12-29T14:48:57;23.63;;;22.73;;
15816;SDS011;8009;50.070;8.232;2022-12-29T14:51:28;23.37;;;22.47;;
15816;SDS011;8009;50.070;8.232;2022-12-29T14:57:13;21.27;;;20.47;;
15816;SDS011;8009;50.070;8.232;2022-12-29T14:59:48;20.47;;;19.67;;
15816;SDS011;8009;50.070;8.232;2022-12-29T15:02:24;19.47;;;18.77;;
15816;SDS011;8009;50.070;8.232;2022-12-29T15:04:58;19.80;;;19.07;;
15816;SDS011;8009;50.070;8.232;2022-12-29T15:07:28;20.77;;;19.97;;
15816;SDS011;8009;50.070;8.232;2022-12-29T15:09:58;16.63;;;16.03;;
15816;SDS011;8009;50.070;8.232;2022-12-29T15:12:35;17.27;;;16.63;;
15816;SDS011;8009;50.070;8.232;2022-12-29T15:15:16;18.63;;;17.93;;
15816;SDS011;8009;50.070;8.232;2022-12-29T15:17:49;15.50;;;14.90;;
15816;SDS011;8009;50.070;8.232;2022-12-29T15:20:24;20.10;;;19.30;;
15816;SDS011;8009;50.070;8.232;2022-12-29T15:22:56;16.50;;;15.90;;
15816;SDS011;8009;50.070;8.232;2022-12-29T15:25:27;17.50;;;16.87;;
15816;SDS011;8009;50.070;8.232;2022-12-29T15:27:57;23.20;;;22.30;;
15816;SDS011;8009;50.070;8.232;2022-12-29T15:30:28;17.67;;;17.00;;
15816;SDS011;8009;50.070;8.232;2022-12-29T15:32:57;19.17;;;18.47;;
15816;SDS011;8009;50.070;8.232;2022-12-29T15:35:32;20.50;;;19.70;;
15816;SDS011;8009;50.070;8.232;2022-12-29T15:38:12;19.57;;;18.87;;
15816;SDS011;8009;50.070;8.232;2022-12-29T15:40:43;16.50;;;15.90;;
15816;SDS011;8009;50.070;8.232;2022-12-29T15:46:08;19.93;;;19.20;;
15816;SDS011;8009;50.070;8.232;2022-12-29T15:48:39;19.60;;;18.90;;
15816;SDS011;8009;50.070;8.232;2022-12-29T15:51:14;14.00;;;13.50;;
15816;SDS011;8009;50.070;8.232;2022-12-29T15:53:47;21.33;;;20.53;;
15816;SDS011;8009;50.070;8.232;2022-12-29T15:56:18;18.93;;;18.23;;
15816;SDS011;8009;50.070;8.232;2022-12-29T15:58:47;20.13;;;19.33;;